• Join FlightAware (Why Join?)
  • Login
  • US Flag 
12:50AM EDT


 

Airport Tracker/Info


-or-


 

Live Flight TrackerFlight Track Log ✈ AWE3397 ✈ 22-Apr-2013 ✈ KPHL - KMSY

Flight Track Log - Related Links

Times and Time Zones

All times are in EDT time to prevent confusion due to time zone crossing. See the AWE3397 flight status page for this flight to view local times or setup timezone preferences in your user account.

Time Position Orientation Groundspeed Altitude Reporting Facility
EDT Latitude Longitude Course Direction KTS MPH feet Rate Location/Type
08:12AM 39.8753 -75.2233 261° West 150 173 600  Level FAA TRACON SMA TRACON (SMA)
08:12AM 39.8800 -75.2094 66° East 134 154 1,600 2,100 Climbing FAA TRACON SMA TRACON (SMA)
08:13AM 39.8847 -75.1958 66° East 136 157 2,000 1,320 Climbing FAA TRACON SMA TRACON (SMA)
08:13AM 39.8922 -75.1742 66° East 183 211 2,500 1,920 Climbing FAA TRACON SMA TRACON (SMA)
08:13AM 39.8994 -75.1547 64° Northeast 200 230 3,300 1,800 Climbing FAA TRACON SMA TRACON (SMA)
08:14AM 39.9078 -75.1300 66° East 213 245 3,700 2,220 Climbing FAA TRACON SMA TRACON (SMA)
08:14AM 39.9175 -75.1028 65° Northeast 228 262 4,800 2,820 Climbing FAA TRACON SMA TRACON (SMA)
08:14AM 39.9242 -75.0797 69° East 231 266 5,600 2,520 Climbing FAA TRACON SMA TRACON (SMA)
08:15AM 39.8333 -75.7472 270° West  Level FlightAware Approximate
08:15AM 39.9367 -75.0558 56° Northeast 253 291 6,500  Level FAA TRACON SMA TRACON (SMA)
08:15AM 39.9622 -75.0494 11° North 255 293 7,400 2,520 Climbing FAA TRACON SMA TRACON (SMA)
08:15AM 39.9825 -75.0581 342° North 258 297 8,200 2,220 Climbing FAA TRACON SMA TRACON (SMA)
08:16AM 39.8176 -75.8778 258° West  Level FlightAware Approximate
08:16AM 40.0044 -75.0694 338° Northwest 263 303 8,900  Level FAA TRACON SMA TRACON (SMA)
08:16AM 40.0300 -75.0828 338° Northwest 263 303 9,000 120 Climbing FAA TRACON SMA TRACON (SMA)
08:16AM 40.0514 -75.0936 339° North 262 302 9,000  Level FAA TRACON SMA TRACON (SMA)
08:17AM 39.7990 -76.0079 261° West  Level FlightAware Approximate
08:17AM 40.0772 -75.1086 336° Northwest 263 303 9,000  Level FAA TRACON SMA TRACON (SMA)
08:17AM 40.0983 -75.1181 341° North 263 303 9,000 300 Level FAA TRACON SMA TRACON (SMA)
08:17AM 40.1197 -75.1292 338° Northwest 266 306 9,200 720 Climbing FAA TRACON SMA TRACON (SMA)
08:18AM 40.1478 -75.1433 339° North 269 310 9,500 1,200 Climbing FAA TRACON SMA TRACON (SMA)
08:18AM 40.1711 -75.1550 339° North 294 338 10,000 720 Climbing FAA TRACON SMA TRACON (SMA)
08:18AM 40.1950 -75.1672 339° North 303 349 10,000  Level FAA TRACON SMA TRACON (SMA)
08:19AM 40.2111 -75.1903 312° West 288 331 10,000  Level FAA TRACON SMA TRACON (SMA)
08:19AM 40.2117 -75.2289 271° West 272 313 10,000  Level FAA TRACON SMA TRACON (SMA)
08:19AM 40.1981 -75.2511 231° Southwest 278 320 10,000  Level FAA TRACON SMA TRACON (SMA)
08:20AM 40.1739 -75.2592 194° South 287 330 10,000  Level FAA TRACON SMA TRACON (SMA)
08:20AM 40.1442 -75.2506 168° South 281 323 10,000  Level FAA TRACON SMA TRACON (SMA)
08:20AM 40.1208 -75.2444 169° South 282 325 10,000  Level FAA TRACON SMA TRACON (SMA)
08:21AM 40.0969 -75.2358 165° South 282 325 10,000  Level FAA TRACON SMA TRACON (SMA)
08:21AM 40.0678 -75.2267 166° South 281 323 10,000  Level FAA TRACON SMA TRACON (SMA)
08:21AM 40.0456 -75.2194 166° South 282 325 10,000  Level FAA TRACON SMA TRACON (SMA)
08:22AM 40.0208 -75.2117 166° South 281 323 10,000  Level FAA TRACON SMA TRACON (SMA)
08:22AM 39.9925 -75.2028 166° South 282 325 10,000  Level FAA TRACON SMA TRACON (SMA)
08:22AM 39.9683 -75.2094 192° South 274 315 10,000  Level FAA TRACON SMA TRACON (SMA)
08:23AM 39.9492 -75.2275 216° Southwest 272 313 10,000  Level FAA TRACON SMA TRACON (SMA)
08:23AM 39.9306 -75.2572 231° Southwest 279 321 10,000  Level FAA TRACON SMA TRACON (SMA)
08:23AM 39.9236 -75.2869 253° West 304 350 10,000  Level FAA TRACON SMA TRACON (SMA)
08:24AM 39.9164 -75.3242 256° West 280 322 10,000  Level FAA TRACON SMA TRACON (SMA)
08:24AM 39.9117 -75.3544 259° West 279 321 10,000  Level FAA TRACON SMA TRACON (SMA)
08:24AM 39.9069 -75.3844 258° West 278 320 10,000  Level FAA TRACON SMA TRACON (SMA)
08:25AM 39.9006 -75.4242 258° West 290 334 10,000  Level FAA TRACON SMA TRACON (SMA)
08:25AM 39.8947 -75.4572 257° West 301 346 10,000  Level FAA TRACON SMA TRACON (SMA)
08:25AM 39.8892 -75.4892 257° West 302 348 10,000  Level FAA TRACON SMA TRACON (SMA)
08:26AM 39.8825 -75.5322 259° West 305 351 10,000  Level FAA TRACON SMA TRACON (SMA)
08:26AM 39.8769 -75.5650 258° West 305 351 10,000  Level FAA TRACON SMA TRACON (SMA)
08:26AM 39.8711 -75.5969 257° West 304 350 10,000  Level FAA TRACON SMA TRACON (SMA)
08:27AM 39.8644 -75.6397 259° West 305 351 10,000  Level FAA TRACON SMA TRACON (SMA)
08:27AM 39.8586 -75.6725 257° West 304 350 10,000 420 Level FAA TRACON SMA TRACON (SMA)
08:27AM 39.8533 -75.7058 258° West 306 352 10,300 2,220 Climbing FAA TRACON SMA TRACON (SMA)
08:28AM 39.8464 -75.7483 258° West 309 356 11,500 3,000 Climbing FAA TRACON SMA TRACON (SMA)
08:28AM 39.8411 -75.7817 258° West 308 354 12,300 2,220 Climbing FAA TRACON SMA TRACON (SMA)
08:28AM 39.8358 -75.8153 258° West 308 354 13,000 2,400 Climbing FAA TRACON SMA TRACON (SMA)
08:29AM 39.8311 -75.8561 261° West 307 353 13,900 2,520 Climbing FAA TRACON SMA TRACON (SMA)
08:29AM 39.8272 -75.8911 262° West 312 359 14,700 2,220 Climbing FAA TRACON SMA TRACON (SMA)
08:29AM 39.8233 -75.9272 262° West 313 360 15,400 2,100 Climbing FAA TRACON SMA TRACON (SMA)
08:30AM 39.8186 -75.9692 262° West 313 360 16,100 1,920 Climbing FAA TRACON SMA TRACON (SMA)
08:30AM 39.8153 -76.0053 263° West 315 362 16,700 1,800 Climbing FAA TRACON SMA TRACON (SMA)
08:30AM 39.8100 -76.0411 259° West 320 368 17,300 2,100 Climbing FAA TRACON SMA TRACON (SMA)
08:31AM 39.8047 -76.0850 261° West 324 373 18,100 1,020 Climbing FAA TRACON SMA TRACON (SMA)
08:31AM 39.8028 -76.1183 266° West 327 376 18,000  Descending FAA TRACON SMA TRACON (SMA)
08:31AM 39.8017 -76.1278 261° West 327 376 18,100 1,560 Climbing FAA TRACON SMA TRACON (SMA)
08:33AM 39.7236 -76.3819 248° West 342 394 21,800 1,620 Climbing Washington Center
08:34AM 39.6789 -76.4947 243° Southwest 336 387 23,100 1,260 Climbing Washington Center
08:35AM 39.6303 -76.6128 242° Southwest 352 405 24,400 1,320 Climbing Washington Center
08:36AM 39.5853 -76.7278 243° Southwest 363 418 25,800 1,380 Climbing Washington Center
08:37AM 39.5425 -76.8456 245° Southwest 363 418 27,200 1,320 Climbing Washington Center
08:38AM 39.4975 -76.9606 243° Southwest 363 418 28,500 1,200 Climbing Washington Center
08:39AM 39.4214 -77.0556 224° Southwest 371 427 29,600 1,320 Climbing Washington Center
08:40AM 39.3411 -77.1400 219° Southwest 371 427 31,200 1,500 Climbing Washington Center
08:41AM 39.2608 -77.2267 220° Southwest 376 433 32,600 1,380 Climbing Washington Center
08:42AM 39.1825 -77.3053 218° Southwest 371 427 34,000 660 Climbing Washington Center
08:43AM 39.1086 -77.3839 220° Southwest 361 415 34,000  Level Washington Center
08:44AM 39.0322 -77.4622 219° Southwest 355 409 34,000  Level Washington Center
08:45AM 38.9497 -77.5481 219° Southwest 361 415 34,000  Level Washington Center
08:46AM 38.8817 -77.6183 219° Southwest 361 415 34,000  Level Washington Center
08:47AM 38.8075 -77.6989 220° Southwest 356 410 34,000  Level Washington Center
08:48AM 38.7289 -77.7764 218° Southwest 361 415 34,000  Level Washington Center
08:49AM 38.6522 -77.8567 219° Southwest 361 415 34,000  Level Washington Center
08:50AM 38.5922 -77.9531 231° Southwest 350 403 34,000  Level Washington Center
08:51AM 38.5275 -78.0597 232° Southwest 350 403 34,000  Level Washington Center
08:52AM 38.4711 -78.1614 235° Southwest 357 411 34,000  Level Washington Center
08:53AM 38.4128 -78.2572 232° Southwest 357 411 34,000  Level Washington Center
08:54AM 38.3542 -78.3558 233° Southwest 357 411 34,000  Level Washington Center
08:55AM 38.2956 -78.4517 232° Southwest 352 405 34,000  Level Washington Center
08:56AM 38.2411 -78.5500 235° Southwest 352 405 34,000  Level Washington Center
08:57AM 38.1822 -78.6481 233° Southwest 352 405 34,000  Level Washington Center
08:58AM 38.1233 -78.7486 233° Southwest 352 405 34,000  Level Washington Center
08:59AM 38.0689 -78.8361 232° Southwest 357 411 34,000  Level Washington Center
09:00AM 38.0100 -78.9336 233° Southwest 357 411 34,000  Level Washington Center
09:01AM 37.9508 -79.0336 233° Southwest 357 411 34,000  Level Washington Center
09:02AM 37.8917 -79.1308 232° Southwest 357 411 34,000  Level Washington Center
09:03AM 37.8358 -79.2494 239° Southwest 351 404 34,000  Level Washington Center
09:04AM 37.7828 -79.3544 237° Southwest 351 404 34,000  Level Washington Center
09:05AM 37.7314 -79.4594 238° Southwest 357 411 34,000  Level Washington Center
09:06AM 37.6736 -79.5642 235° Southwest 357 411 34,000  Level Washington Center
09:07AM 37.6200 -79.6689 237° Southwest 363 418 34,000  Level Washington Center
09:08AM 37.5731 -79.7658 239° Southwest 357 411 34,000  Level Washington Center
09:09AM 37.5144 -79.8833 238° Southwest 357 411 34,000  Level Washington Center
09:10AM 37.4606 -79.9900 238° Southwest 362 417 34,000  Level Washington Center
09:11AM 37.4067 -80.0967 238° Southwest 362 417 34,000  Level Washington Center
09:14AM 37.2806 -80.3325 236° Southwest 353 406 34,000  Level Atlanta Center
09:15AM 37.2275 -80.4392 238° Southwest 353 406 34,000  Level Atlanta Center
09:16AM 37.1683 -80.5592 238° Southwest 371 427 34,000  Level Atlanta Center
09:17AM 37.1189 -80.6525 236° Southwest 376 433 34,000  Level Atlanta Center
09:18AM 37.0639 -80.7744 241° Southwest 376 433 34,000  Level Atlanta Center
09:19AM 37.0231 -80.8881 246° West 369 425 34,000  Level Atlanta Center
09:20AM 36.9800 -81.0039 245° Southwest 363 418 34,000  Level Atlanta Center
09:21AM 36.9392 -81.1197 246° West 363 418 34,000  Level Atlanta Center
09:22AM 36.9000 -81.2328 247° West 363 418 34,000  Level Atlanta Center
09:23AM 36.8606 -81.3381 245° Southwest 363 418 34,000  Level Atlanta Center
09:24AM 36.8214 -81.4533 247° West 363 418 34,000  Level Atlanta Center
09:25AM 36.7781 -81.5819 247° West 363 418 34,000  Level Atlanta Center
09:26AM 36.7344 -81.6972 245° Southwest 363 418 34,000  Level Atlanta Center
09:27AM 36.6908 -81.8150 245° Southwest 368 423 34,000  Level Atlanta Center
09:28AM 36.6469 -81.9325 245° Southwest 368 423 34,000  Level Atlanta Center
09:29AM 36.6053 -82.0475 246° West 368 423 34,000  Level Atlanta Center
09:30AM 36.5611 -82.1650 245° Southwest 373 429 34,000  Level Atlanta Center
09:31AM 36.5169 -82.2822 245° Southwest 373 429 34,000  Level Atlanta Center
09:32AM 36.4728 -82.3994 245° Southwest 373 429 34,000  Level Atlanta Center
09:33AM 36.4344 -82.5058 246° West 378 435 34,000  Level Atlanta Center
09:34AM 36.3900 -82.6253 245° Southwest 378 435 34,000  Level Atlanta Center
09:35AM 36.3433 -82.7422 244° Southwest 378 435 34,000  Level Atlanta Center
09:36AM 36.2989 -82.8639 246° West 384 442 34,000  Level Atlanta Center
09:37AM 36.2539 -82.9831 245° Southwest 379 436 34,000  Level Atlanta Center
09:38AM 36.2111 -83.1019 246° West 379 436 34,000  Level Atlanta Center
09:39AM 36.1639 -83.2208 244° Southwest 379 436 34,000  Level Atlanta Center
09:40AM 36.1208 -83.3394 246° West 379 436 34,000  Level Atlanta Center
09:41AM 36.0756 -83.4556 244° Southwest 379 436 34,000  Level Atlanta Center
09:42AM 36.0242 -83.5844 244° Southwest 379 436 34,000  Level Atlanta Center
09:43AM 35.9786 -83.7025 245° Southwest 379 436 34,000  Level Atlanta Center
09:44AM 35.9331 -83.8208 245° Southwest 379 436 34,000  Level Atlanta Center
09:45AM 35.8789 -83.9311 239° Southwest 379 436 34,000  Level Atlanta Center
09:46AM 35.8081 -84.0336 230° Southwest 384 442 34,000  Level Atlanta Center
09:47AM 35.7369 -84.1308 228° Southwest 384 442 34,000  Level Atlanta Center
09:48AM 35.6661 -84.2306 229° Southwest 389 448 34,000  Level Atlanta Center
09:49AM 35.5928 -84.3300 228° Southwest 389 448 34,000  Level Atlanta Center
09:50AM 35.5217 -84.4317 229° Southwest 389 448 34,000  Level Atlanta Center
09:51AM 35.4628 -84.5106 228° Southwest 389 448 34,000  Level Atlanta Center
09:52AM 35.3872 -84.6169 229° Southwest 389 448 34,000  Level Atlanta Center
09:53AM 35.3139 -84.7158 228° Southwest 389 448 34,000  Level Atlanta Center
09:54AM 35.2444 -84.8144 229° Southwest 384 442 34,000  Level Atlanta Center
09:55AM 35.1706 -84.9128 227° Southwest 384 442 34,000  Level Atlanta Center
09:56AM 35.0989 -85.0111 228° Southwest 384 442 34,000  Level Atlanta Center
09:57AM 35.0231 -85.1092 227° Southwest 384 442 34,000  Level Atlanta Center
09:58AM 34.9533 -85.2069 229° Southwest 384 442 34,000  Level Atlanta Center
09:59AM 34.8814 -85.3047 228° Southwest 384 442 34,000  Level Atlanta Center
10:00AM 34.8072 -85.4047 228° Southwest 384 442 34,000  Level Atlanta Center
10:01AM 34.7353 -85.5022 228° Southwest 384 442 34,000  Level Atlanta Center
10:02AM 34.6631 -85.5994 228° Southwest 389 448 34,000  Level Atlanta Center
10:03AM 34.5886 -85.6992 228° Southwest 389 448 34,000  Level Atlanta Center
10:04AM 34.5144 -85.7958 227° Southwest 389 448 34,000  Level Atlanta Center
10:05AM 34.4442 -85.8875 227° Southwest 383 441 34,000  Level Atlanta Center
10:06AM 34.3717 -85.9842 228° Southwest 383 441 34,000  Level Atlanta Center
10:07AM 34.2972 -86.0781 226° Southwest 383 441 34,000  Level Atlanta Center
10:08AM 34.2267 -86.1744 228° Southwest 388 447 34,000  Level Atlanta Center
10:09AM 34.1519 -86.2703 227° Southwest 388 447 34,000  Level Atlanta Center
10:10AM 34.0792 -86.3686 228° Southwest 388 447 34,000  Level Atlanta Center
10:11AM 34.0064 -86.4619 227° Southwest 382 440 34,000  Level Atlanta Center
10:12AM 33.9314 -86.5575 227° Southwest 388 447 34,000  Level Atlanta Center
10:13AM 33.8583 -86.6553 228° Southwest 388 447 34,000  Level Atlanta Center
10:14AM 33.7853 -86.7506 227° Southwest 388 447 34,000  Level Atlanta Center
10:15AM 33.7100 -86.8456 226° Southwest 388 447 34,000  Level Atlanta Center
10:16AM 33.6411 -86.9433 230° Southwest 388 447 34,000  Level Atlanta Center
10:17AM 33.5739 -87.0431 231° Southwest 383 441 34,000  Level Atlanta Center
10:18AM 33.5047 -87.1453 231° Southwest 383 441 34,000  Level Atlanta Center
10:19AM 33.4394 -87.2450 232° Southwest 389 448 34,000  Level Atlanta Center
10:21AM 33.3117 -87.4339 231° Southwest 375 432 34,000  Level Memphis Center
10:22AM 33.2453 -87.5356 232° Southwest 380 437 34,000  Level Memphis Center
10:23AM 33.1786 -87.6344 231° Southwest 385 443 34,000  Level Memphis Center
10:24AM 33.1097 -87.7383 232° Southwest 390 449 34,000  Level Memphis Center
10:25AM 33.0431 -87.8369 231° Southwest 390 449 34,000  Level Memphis Center
10:26AM 32.9700 -87.9481 232° Southwest 390 449 34,000  Level Memphis Center
10:27AM 32.9031 -88.0464 231° Southwest 384 442 34,000  Level Memphis Center
10:28AM 32.8339 -88.1469 231° Southwest 384 442 34,000  Level Memphis Center
10:29AM 32.7686 -88.2450 232° Southwest 384 442 34,000  Level Memphis Center
10:30AM 32.6994 -88.3453 231° Southwest 384 442 34,000  Level Memphis Center
10:31AM 32.6322 -88.4431 231° Southwest 384 442 34,000  Level Memphis Center
10:32AM 32.5625 -88.5431 230° Southwest 384 442 34,000  Level Memphis Center
10:33AM 32.4931 -88.6456 231° Southwest 389 448 34,000  Level Memphis Center
10:34AM 32.4233 -88.7428 230° Southwest 389 448 34,000  Level Memphis Center
10:35AM 32.3475 -88.8378 227° Southwest 394 453 34,000  Level Memphis Center
10:36AM 32.2606 -88.9203 219° Southwest 394 453 34,000  Level Memphis Center
10:37AM 32.1761 -89.0050 220° Southwest 406 467 34,000  Level Memphis Center
10:38AM 32.0892 -89.0872 219° Southwest 406 467 34,000  Level Memphis Center
10:39AM 32.0025 -89.1717 220° Southwest 401 461 34,000 -120 Level Memphis Center
10:40AM 31.9156 -89.2536 219° Southwest 401 461 33,800 -1,500 Descending Memphis Center
10:42AM 31.7367 -89.4242 219° Southwest 384 442 29,400 -1,860 Descending Houston Center
10:43AM 31.6572 -89.5006 219° Southwest 374 430 28,000 -1,200 Descending Houston Center
10:44AM 31.5575 -89.5703 211° Southwest 402 463 27,000 -960 Descending Houston Center
10:45AM 31.4592 -89.6308 208° Southwest 402 463 26,100 -960 Descending Houston Center
10:46AM 31.3628 -89.6917 208° Southwest 398 458 25,100 -1,260 Descending Houston Center
10:47AM 31.2675 -89.7517 208° Southwest 393 452 23,600 -1,740 Descending Houston Center
10:48AM 31.1544 -89.8228 208° Southwest 385 443 21,600 -1,800 Descending Houston Center
10:49AM 31.0631 -89.8781 207° Southwest 374 430 20,000 -1,560 Descending Houston Center
10:50AM 30.9753 -89.9331 208° Southwest 363 418 18,400 -1,440 Descending Houston Center
10:51AM 30.8883 -89.9875 208° Southwest 359 413 17,000 -1,500 Descending Houston Center
10:52AM 30.8031 -90.0389 207° Southwest 350 403 15,500 -1,620 Descending Houston Center
10:53AM 30.7253 -90.0881 209° Southwest 346 398 14,100 -1,380 Descending Houston Center
10:53AM 30.7181 -90.0922 206° Southwest 346 398 13,900 -1,500 Descending Houston Center
10:54AM 30.6433 -90.1375 208° Southwest 329 379 12,600 -1,680 Descending Houston Center
10:54AM 30.6214 -90.1511 208° Southwest 331 381 12,200 -1,440 Descending Houston Center
10:55AM 30.5736 -90.1814 209° Southwest 312 359 11,300 -1,260 Descending Houston Center
10:55AM 30.5478 -90.1961 206° Southwest 308 354 10,900 -1,140 Descending Houston Center
10:56AM 30.4972 -90.2136 197° South 290 334 10,200 -1,080 Descending Houston Center
10:56AM 30.4714 -90.2231 197° South 293 337 9,800 -1,140 Descending Houston Center
10:57AM 30.4167 -90.2433 198° South 286 329 9,100 -1,020 Descending Houston Center
10:57AM 30.3964 -90.2514 199° South 288 331 8,800 -1,140 Descending Houston Center
10:58AM 30.3464 -90.2728 200° South 285 328 8,100 -1,020 Descending Houston Center
10:58AM 30.3228 -90.2831 201° Southwest 285 328 7,800 -900 Descending Houston Center
10:59AM 30.2844 -90.2944 194° South 280 322 7,300 -1,260 Descending Houston Center
10:59AM 30.2358 -90.3075 193° South 276 318 6,500 -1,080 Descending Houston Center
11:00AM 30.1625 -90.3242 191° South 271 312 5,500 -900 Descending Houston Center
11:01AM 30.1061 -90.3353 190° South 257 296 5,000 -720 Descending Houston Center
11:01AM 30.0922 -90.3378 189° South 265 305 4,800 -840 Descending Houston Center
11:02AM 30.0686 -90.3414 188° South 225 259 4,500 -900 Descending Houston Center
11:02AM 30.0311 -90.3514 193° South 246 283 3,900 -1,140 Descending Houston Center
11:03AM 30.0106 -90.3581 196° South 207 238 3,400 -900 Descending Houston Center
11:04AM 29.9778 -90.3664 192° South 223 257 3,000 -420 Descending Houston Center
11:04AM 29.9567 -90.3722 193° South 180 207 3,000  Level Houston Center
11:05AM 29.9047 -90.3864 193° South 183 211 3,000  Level Houston Center
11:06AM 29.8689 -90.3950 192° South 189 217 3,000  Level Houston Center
11:07AM 29.8194 -90.4025 187° South 186 214 3,000  Level Houston Center
11:07AM 29.8106 -90.3781 113° Southeast 190 219 3,000  Level Houston Center
11:08AM 29.8250 -90.3458 63° Northeast 200 230 3,000  Level Houston Center
11:08AM 29.8383 -90.3264 52° Northeast 198 228 3,000 -420 Level Houston Center
11:09AM 29.8611 -90.3000 45° Northeast 196 226 2,600 -840 Descending Houston Center
11:09AM 29.8789 -90.2867 33° Northeast 196 226 2,200 -1,620 Descending Houston Center